sensor_id;sensor_type;location;lat;lon;timestamp;P1;durP1;ratioP1;P2;durP2;ratioP2
16543;SDS011;8384;47.996;7.786;2023-11-19T00:00:24;2.00;;;0.85;;
16543;SDS011;8384;47.996;7.786;2023-11-19T00:02:50;1.73;;;0.90;;
16543;SDS011;8384;47.996;7.786;2023-11-19T00:05:15;1.47;;;0.90;;
16543;SDS011;8384;47.996;7.786;2023-11-19T00:07:41;1.80;;;1.33;;
16543;SDS011;8384;47.996;7.786;2023-11-19T00:10:07;4.10;;;3.20;;
16543;SDS011;8384;47.996;7.786;2023-11-19T00:12:34;3.08;;;2.78;;
16543;SDS011;8384;47.996;7.786;2023-11-19T00:15:00;4.30;;;3.23;;
16543;SDS011;8384;47.996;7.786;2023-11-19T00:17:26;3.53;;;3.20;;
16543;SDS011;8384;47.996;7.786;2023-11-19T00:19:52;3.03;;;2.63;;
16543;SDS011;8384;47.996;7.786;2023-11-19T00:22:17;4.73;;;2.50;;
16543;SDS011;8384;47.996;7.786;2023-11-19T00:24:42;2.97;;;2.20;;
16543;SDS011;8384;47.996;7.786;2023-11-19T00:27:07;2.50;;;2.00;;
16543;SDS011;8384;47.996;7.786;2023-11-19T00:29:33;2.50;;;2.20;;
16543;SDS011;8384;47.996;7.786;2023-11-19T00:31:58;2.70;;;2.10;;
16543;SDS011;8384;47.996;7.786;2023-11-19T00:34:23;1.97;;;1.77;;
16543;SDS011;8384;47.996;7.786;2023-11-19T00:36:49;1.95;;;1.67;;
16543;SDS011;8384;47.996;7.786;2023-11-19T00:39:14;2.42;;;1.83;;
16543;SDS011;8384;47.996;7.786;2023-11-19T00:41:40;2.13;;;1.60;;
16543;SDS011;8384;47.996;7.786;2023-11-19T00:44:06;1.40;;;1.30;;
16543;SDS011;8384;47.996;7.786;2023-11-19T00:46:31;2.60;;;1.40;;
16543;SDS011;8384;47.996;7.786;2023-11-19T00:48:57;1.40;;;1.10;;
16543;SDS011;8384;47.996;7.786;2023-11-19T00:51:24;1.40;;;1.13;;
16543;SDS011;8384;47.996;7.786;2023-11-19T00:53:51;2.45;;;1.10;;
16543;SDS011;8384;47.996;7.786;2023-11-19T00:56:16;1.60;;;1.13;;
16543;SDS011;8384;47.996;7.786;2023-11-19T00:58:42;1.77;;;0.80;;
16543;SDS011;8384;47.996;7.786;2023-11-19T01:01:07;1.70;;;0.90;;
16543;SDS011;8384;47.996;7.786;2023-11-19T01:03:33;1.60;;;1.00;;
16543;SDS011;8384;47.996;7.786;2023-11-19T01:05:58;1.63;;;0.87;;
16543;SDS011;8384;47.996;7.786;2023-11-19T01:08:25;1.95;;;0.90;;
16543;SDS011;8384;47.996;7.786;2023-11-19T01:10:51;1.77;;;0.80;;
16543;SDS011;8384;47.996;7.786;2023-11-19T01:13:16;1.60;;;1.10;;
16543;SDS011;8384;47.996;7.786;2023-11-19T01:15:41;2.00;;;1.00;;
16543;SDS011;8384;47.996;7.786;2023-11-19T01:18:07;1.00;;;1.00;;
16543;SDS011;8384;47.996;7.786;2023-11-19T01:20:34;2.53;;;1.00;;
16543;SDS011;8384;47.996;7.786;2023-11-19T01:22:59;1.42;;;0.90;;
16543;SDS011;8384;47.996;7.786;2023-11-19T01:25:25;1.63;;;1.00;;
16543;SDS011;8384;47.996;7.786;2023-11-19T01:27:50;1.43;;;0.80;;
16543;SDS011;8384;47.996;7.786;2023-11-19T01:30:15;1.27;;;0.90;;
16543;SDS011;8384;47.996;7.786;2023-11-19T01:32:41;1.45;;;1.05;;
16543;SDS011;8384;47.996;7.786;2023-11-19T01:35:06;1.73;;;0.93;;
16543;SDS011;8384;47.996;7.786;2023-11-19T01:37:33;1.50;;;0.90;;
16543;SDS011;8384;47.996;7.786;2023-11-19T01:39:59;2.08;;;1.00;;
16543;SDS011;8384;47.996;7.786;2023-11-19T01:42:25;1.50;;;1.00;;
16543;SDS011;8384;47.996;7.786;2023-11-19T01:44:57;2.30;;;1.00;;
16543;SDS011;8384;47.996;7.786;2023-11-19T01:47:24;1.95;;;1.20;;
16543;SDS011;8384;47.996;7.786;2023-11-19T01:49:53;1.98;;;1.42;;
16543;SDS011;8384;47.996;7.786;2023-11-19T01:52:19;1.55;;;1.25;;
16543;SDS011;8384;47.996;7.786;2023-11-19T01:54:45;2.03;;;1.40;;
16543;SDS011;8384;47.996;7.786;2023-11-19T01:57:11;2.85;;;1.50;;
16543;SDS011;8384;47.996;7.786;2023-11-19T01:59:36;2.43;;;1.50;;
16543;SDS011;8384;47.996;7.786;2023-11-19T02:02:03;2.28;;;1.83;;
16543;SDS011;8384;47.996;7.786;2023-11-19T02:04:30;2.55;;;1.77;;
16543;SDS011;8384;47.996;7.786;2023-11-19T02:06:56;2.30;;;1.60;;
16543;SDS011;8384;47.996;7.786;2023-11-19T02:09:23;2.45;;;1.33;;
16543;SDS011;8384;47.996;7.786;2023-11-19T02:11:49;2.50;;;1.60;;
16543;SDS011;8384;47.996;7.786;2023-11-19T02:14:16;2.30;;;1.58;;
16543;SDS011;8384;47.996;7.786;2023-11-19T02:16:42;1.83;;;1.65;;
16543;SDS011;8384;47.996;7.786;2023-11-19T02:19:08;2.80;;;1.65;;
16543;SDS011;8384;47.996;7.786;2023-11-19T02:21:35;1.80;;;1.50;;
16543;SDS011;8384;47.996;7.786;2023-11-19T02:24:01;1.77;;;1.50;;
16543;SDS011;8384;47.996;7.786;2023-11-19T02:26:56;3.08;;;1.90;;
16543;SDS011;8384;47.996;7.786;2023-11-19T02:29:23;2.00;;;1.80;;
16543;SDS011;8384;47.996;7.786;2023-11-19T02:31:48;2.00;;;1.80;;
16543;SDS011;8384;47.996;7.786;2023-11-19T02:34:13;2.50;;;1.90;;
16543;SDS011;8384;47.996;7.786;2023-11-19T02:36:39;2.00;;;1.70;;
16543;SDS011;8384;47.996;7.786;2023-11-19T02:39:06;2.83;;;1.70;;
16543;SDS011;8384;47.996;7.786;2023-11-19T02:41:35;2.70;;;1.70;;
16543;SDS011;8384;47.996;7.786;2023-11-19T02:44:00;2.17;;;1.50;;
16543;SDS011;8384;47.996;7.786;2023-11-19T02:46:26;2.17;;;1.90;;
16543;SDS011;8384;47.996;7.786;2023-11-19T02:48:51;2.38;;;1.83;;
16543;SDS011;8384;47.996;7.786;2023-11-19T02:51:16;2.00;;;1.48;;
16543;SDS011;8384;47.996;7.786;2023-11-19T02:53:43;1.75;;;1.65;;
16543;SDS011;8384;47.996;7.786;2023-11-19T02:56:09;2.00;;;1.40;;
16543;SDS011;8384;47.996;7.786;2023-11-19T02:58:45;2.20;;;1.60;;
16543;SDS011;8384;47.996;7.786;2023-11-19T03:01:11;2.10;;;1.50;;
16543;SDS011;8384;47.996;7.786;2023-11-19T03:03:50;1.70;;;1.60;;
16543;SDS011;8384;47.996;7.786;2023-11-19T03:06:21;1.55;;;1.40;;
16543;SDS011;8384;47.996;7.786;2023-11-19T03:08:47;2.58;;;1.50;;
16543;SDS011;8384;47.996;7.786;2023-11-19T03:11:13;2.10;;;1.40;;
16543;SDS011;8384;47.996;7.786;2023-11-19T03:13:38;1.92;;;1.58;;
16543;SDS011;8384;47.996;7.786;2023-11-19T03:16:04;1.77;;;1.40;;
16543;SDS011;8384;47.996;7.786;2023-11-19T03:18:29;2.45;;;1.30;;
16543;SDS011;8384;47.996;7.786;2023-11-19T03:20:55;1.90;;;1.47;;
16543;SDS011;8384;47.996;7.786;2023-11-19T03:23:20;2.23;;;1.30;;
16543;SDS011;8384;47.996;7.786;2023-11-19T03:25:45;1.52;;;1.23;;
16543;SDS011;8384;47.996;7.786;2023-11-19T03:28:10;1.53;;;1.43;;
16543;SDS011;8384;47.996;7.786;2023-11-19T03:30:36;2.63;;;1.30;;
16543;SDS011;8384;47.996;7.786;2023-11-19T03:33:02;1.77;;;1.30;;
16543;SDS011;8384;47.996;7.786;2023-11-19T03:35:27;2.20;;;1.30;;
16543;SDS011;8384;47.996;7.786;2023-11-19T03:37:53;1.43;;;1.30;;
16543;SDS011;8384;47.996;7.786;2023-11-19T03:40:18;1.80;;;1.20;;
16543;SDS011;8384;47.996;7.786;2023-11-19T03:42:47;2.43;;;1.30;;
16543;SDS011;8384;47.996;7.786;2023-11-19T03:45:12;1.63;;;1.15;;
16543;SDS011;8384;47.996;7.786;2023-11-19T03:47:38;2.17;;;1.10;;
16543;SDS011;8384;47.996;7.786;2023-11-19T03:50:04;1.63;;;1.20;;
16543;SDS011;8384;47.996;7.786;2023-11-19T03:52:30;1.65;;;1.13;;
16543;SDS011;8384;47.996;7.786;2023-11-19T03:54:55;1.20;;;1.10;;
16543;SDS011;8384;47.996;7.786;2023-11-19T03:57:24;1.20;;;1.00;;
16543;SDS011;8384;47.996;7.786;2023-11-19T03:59:49;1.10;;;1.00;;
16543;SDS011;8384;47.996;7.786;2023-11-19T04:02:15;1.23;;;0.80;;
16543;SDS011;8384;47.996;7.786;2023-11-19T04:04:40;1.00;;;0.90;;
16543;SDS011;8384;47.996;7.786;2023-11-19T04:07:06;1.93;;;0.93;;
16543;SDS011;8384;47.996;7.786;2023-11-19T04:09:31;1.40;;;0.80;;
16543;SDS011;8384;47.996;7.786;2023-11-19T04:11:59;1.27;;;0.80;;
16543;SDS011;8384;47.996;7.786;2023-11-19T04:14:25;1.50;;;0.80;;
16543;SDS011;8384;47.996;7.786;2023-11-19T04:16:51;1.10;;;0.90;;
16543;SDS011;8384;47.996;7.786;2023-11-19T04:19:17;1.27;;;0.98;;
16543;SDS011;8384;47.996;7.786;2023-11-19T04:21:42;0.80;;;0.80;;
16543;SDS011;8384;47.996;7.786;2023-11-19T04:24:08;1.07;;;0.87;;
16543;SDS011;8384;47.996;7.786;2023-11-19T04:26:39;1.08;;;0.80;;
16543;SDS011;8384;47.996;7.786;2023-11-19T04:29:10;1.17;;;0.80;;
16543;SDS011;8384;47.996;7.786;2023-11-19T04:31:48;0.90;;;0.70;;
16543;SDS011;8384;47.996;7.786;2023-11-19T04:34:13;0.77;;;0.60;;
16543;SDS011;8384;47.996;7.786;2023-11-19T04:36:38;0.90;;;0.60;;
16543;SDS011;8384;47.996;7.786;2023-11-19T04:39:04;0.77;;;0.60;;
16543;SDS011;8384;47.996;7.786;2023-11-19T04:41:34;0.50;;;0.50;;
16543;SDS011;8384;47.996;7.786;2023-11-19T04:44:00;0.70;;;0.50;;
16543;SDS011;8384;47.996;7.786;2023-11-19T04:46:25;1.20;;;0.67;;
16543;SDS011;8384;47.996;7.786;2023-11-19T04:48:51;0.47;;;0.37;;
16543;SDS011;8384;47.996;7.786;2023-11-19T04:51:16;0.73;;;0.50;;
16543;SDS011;8384;47.996;7.786;2023-11-19T04:53:42;0.73;;;0.50;;
16543;SDS011;8384;47.996;7.786;2023-11-19T04:56:07;0.50;;;0.30;;
16543;SDS011;8384;47.996;7.786;2023-11-19T04:58:34;1.35;;;0.50;;
16543;SDS011;8384;47.996;7.786;2023-11-19T05:01:00;0.47;;;0.40;;
16543;SDS011;8384;47.996;7.786;2023-11-19T05:03:26;0.50;;;0.30;;
16543;SDS011;8384;47.996;7.786;2023-11-19T05:05:51;1.13;;;0.30;;
16543;SDS011;8384;47.996;7.786;2023-11-19T05:08:17;0.80;;;0.40;;
16543;SDS011;8384;47.996;7.786;2023-11-19T05:10:42;0.50;;;0.37;;
16543;SDS011;8384;47.996;7.786;2023-11-19T05:13:07;0.30;;;0.30;;
16543;SDS011;8384;47.996;7.786;2023-11-19T05:15:32;0.33;;;0.33;;
16543;SDS011;8384;47.996;7.786;2023-11-19T05:17:58;0.40;;;0.30;;
16543;SDS011;8384;47.996;7.786;2023-11-19T05:20:23;0.30;;;0.30;;
16543;SDS011;8384;47.996;7.786;2023-11-19T05:22:49;0.57;;;0.37;;
16543;SDS011;8384;47.996;7.786;2023-11-19T05:25:18;0.50;;;0.40;;
16543;SDS011;8384;47.996;7.786;2023-11-19T05:27:45;0.50;;;0.30;;
16543;SDS011;8384;47.996;7.786;2023-11-19T05:30:10;0.40;;;0.30;;
16543;SDS011;8384;47.996;7.786;2023-11-19T05:32:35;0.33;;;0.33;;
16543;SDS011;8384;47.996;7.786;2023-11-19T05:35:01;0.40;;;0.32;;
16543;SDS011;8384;47.996;7.786;2023-11-19T05:37:26;0.47;;;0.40;;
16543;SDS011;8384;47.996;7.786;2023-11-19T05:39:52;0.40;;;0.20;;
16543;SDS011;8384;47.996;7.786;2023-11-19T05:42:17;0.63;;;0.50;;
16543;SDS011;8384;47.996;7.786;2023-11-19T05:44:42;0.52;;;0.40;;
16543;SDS011;8384;47.996;7.786;2023-11-19T05:47:08;0.45;;;0.30;;
16543;SDS011;8384;47.996;7.786;2023-11-19T05:49:33;0.40;;;0.30;;
16543;SDS011;8384;47.996;7.786;2023-11-19T05:51:58;0.60;;;0.40;;
16543;SDS011;8384;47.996;7.786;2023-11-19T05:54:24;0.47;;;0.40;;
16543;SDS011;8384;47.996;7.786;2023-11-19T05:56:49;0.30;;;0.20;;
16543;SDS011;8384;47.996;7.786;2023-11-19T05:59:14;1.00;;;0.40;;
16543;SDS011;8384;47.996;7.786;2023-11-19T06:01:43;0.30;;;0.30;;
16543;SDS011;8384;47.996;7.786;2023-11-19T06:04:08;1.20;;;0.30;;
16543;SDS011;8384;47.996;7.786;2023-11-19T06:06:34;0.60;;;0.30;;
16543;SDS011;8384;47.996;7.786;2023-11-19T06:09:00;0.50;;;0.40;;
16543;SDS011;8384;47.996;7.786;2023-11-19T06:11:29;0.43;;;0.30;;
16543;SDS011;8384;47.996;7.786;2023-11-19T06:13:55;0.63;;;0.30;;
16543;SDS011;8384;47.996;7.786;2023-11-19T06:16:21;0.95;;;0.30;;
16543;SDS011;8384;47.996;7.786;2023-11-19T06:18:46;1.00;;;0.30;;
16543;SDS011;8384;47.996;7.786;2023-11-19T06:21:12;1.10;;;0.40;;
16543;SDS011;8384;47.996;7.786;2023-11-19T06:23:37;1.20;;;0.30;;
16543;SDS011;8384;47.996;7.786;2023-11-19T06:26:03;1.80;;;0.40;;
16543;SDS011;8384;47.996;7.786;2023-11-19T06:28:30;0.47;;;0.32;;
16543;SDS011;8384;47.996;7.786;2023-11-19T06:30:55;0.77;;;0.30;;
16543;SDS011;8384;47.996;7.786;2023-11-19T06:33:22;1.10;;;0.40;;
16543;SDS011;8384;47.996;7.786;2023-11-19T06:35:47;0.70;;;0.30;;
16543;SDS011;8384;47.996;7.786;2023-11-19T06:38:14;0.50;;;0.47;;
16543;SDS011;8384;47.996;7.786;2023-11-19T06:40:39;0.63;;;0.47;;
16543;SDS011;8384;47.996;7.786;2023-11-19T06:43:06;1.60;;;0.30;;
16543;SDS011;8384;47.996;7.786;2023-11-19T06:45:33;0.28;;;0.28;;
16543;SDS011;8384;47.996;7.786;2023-11-19T06:48:02;0.50;;;0.40;;
16543;SDS011;8384;47.996;7.786;2023-11-19T06:50:29;0.70;;;0.40;;
16543;SDS011;8384;47.996;7.786;2023-11-19T06:52:54;1.30;;;0.50;;
16543;SDS011;8384;47.996;7.786;2023-11-19T06:55:20;1.20;;;0.35;;
16543;SDS011;8384;47.996;7.786;2023-11-19T06:57:45;0.70;;;0.47;;
16543;SDS011;8384;47.996;7.786;2023-11-19T07:00:10;0.80;;;0.30;;
16543;SDS011;8384;47.996;7.786;2023-11-19T07:02:36;0.88;;;0.40;;
16543;SDS011;8384;47.996;7.786;2023-11-19T07:05:02;0.60;;;0.30;;
16543;SDS011;8384;47.996;7.786;2023-11-19T07:07:30;1.48;;;0.40;;
16543;SDS011;8384;47.996;7.786;2023-11-19T07:09:55;0.75;;;0.35;;
16543;SDS011;8384;47.996;7.786;2023-11-19T07:12:21;0.40;;;0.40;;
16543;SDS011;8384;47.996;7.786;2023-11-19T07:14:46;0.65;;;0.40;;
16543;SDS011;8384;47.996;7.786;2023-11-19T07:17:11;0.40;;;0.30;;
16543;SDS011;8384;47.996;7.786;2023-11-19T07:19:37;0.60;;;0.40;;
16543;SDS011;8384;47.996;7.786;2023-11-19T07:22:03;0.80;;;0.40;;
16543;SDS011;8384;47.996;7.786;2023-11-19T07:24:29;0.95;;;0.40;;
16543;SDS011;8384;47.996;7.786;2023-11-19T07:26:54;0.80;;;0.50;;
16543;SDS011;8384;47.996;7.786;2023-11-19T07:29:20;1.30;;;0.40;;
16543;SDS011;8384;47.996;7.786;2023-11-19T07:31:46;1.93;;;0.50;;
16543;SDS011;8384;47.996;7.786;2023-11-19T07:34:13;0.80;;;0.50;;
16543;SDS011;8384;47.996;7.786;2023-11-19T07:36:39;0.85;;;0.43;;
16543;SDS011;8384;47.996;7.786;2023-11-19T07:39:04;1.40;;;0.50;;
16543;SDS011;8384;47.996;7.786;2023-11-19T07:41:30;1.00;;;0.50;;
16543;SDS011;8384;47.996;7.786;2023-11-19T07:43:58;1.73;;;0.50;;
16543;SDS011;8384;47.996;7.786;2023-11-19T07:46:24;0.60;;;0.30;;
16543;SDS011;8384;47.996;7.786;2023-11-19T07:48:50;1.20;;;0.50;;
16543;SDS011;8384;47.996;7.786;2023-11-19T07:51:15;0.63;;;0.40;;
16543;SDS011;8384;47.996;7.786;2023-11-19T07:53:41;0.63;;;0.40;;
16543;SDS011;8384;47.996;7.786;2023-11-19T07:56:07;0.50;;;0.40;;
16543;SDS011;8384;47.996;7.786;2023-11-19T07:58:33;0.40;;;0.40;;
16543;SDS011;8384;47.996;7.786;2023-11-19T08:00:58;1.70;;;0.50;;
16543;SDS011;8384;47.996;7.786;2023-11-19T08:03:23;0.97;;;0.47;;
16543;SDS011;8384;47.996;7.786;2023-11-19T08:05:49;0.87;;;0.60;;
16543;SDS011;8384;47.996;7.786;2023-11-19T08:08:14;0.50;;;0.50;;
16543;SDS011;8384;47.996;7.786;2023-11-19T08:10:40;1.10;;;0.70;;
16543;SDS011;8384;47.996;7.786;2023-11-19T08:13:05;0.77;;;0.47;;
16543;SDS011;8384;47.996;7.786;2023-11-19T08:15:31;1.20;;;0.50;;
16543;SDS011;8384;47.996;7.786;2023-11-19T08:17:56;0.57;;;0.50;;
16543;SDS011;8384;47.996;7.786;2023-11-19T08:20:22;0.60;;;0.60;;
16543;SDS011;8384;47.996;7.786;2023-11-19T08:22:48;2.25;;;0.60;;
16543;SDS011;8384;47.996;7.786;2023-11-19T08:25:13;1.20;;;0.60;;
16543;SDS011;8384;47.996;7.786;2023-11-19T08:27:39;1.10;;;0.60;;
16543;SDS011;8384;47.996;7.786;2023-11-19T08:30:04;1.70;;;0.67;;
16543;SDS011;8384;47.996;7.786;2023-11-19T08:32:31;0.75;;;0.55;;
16543;SDS011;8384;47.996;7.786;2023-11-19T08:34:56;0.85;;;0.50;;
16543;SDS011;8384;47.996;7.786;2023-11-19T08:37:22;0.77;;;0.60;;
16543;SDS011;8384;47.996;7.786;2023-11-19T08:39:47;1.50;;;0.60;;
16543;SDS011;8384;47.996;7.786;2023-11-19T08:42:13;1.30;;;0.70;;
16543;SDS011;8384;47.996;7.786;2023-11-19T08:44:38;1.33;;;0.60;;
16543;SDS011;8384;47.996;7.786;2023-11-19T08:47:04;1.20;;;0.70;;
16543;SDS011;8384;47.996;7.786;2023-11-19T08:49:29;0.90;;;0.57;;
16543;SDS011;8384;47.996;7.786;2023-11-19T08:51:54;1.07;;;0.80;;
16543;SDS011;8384;47.996;7.786;2023-11-19T08:54:20;0.90;;;0.60;;
16543;SDS011;8384;47.996;7.786;2023-11-19T08:56:46;1.30;;;0.60;;
16543;SDS011;8384;47.996;7.786;2023-11-19T08:59:11;1.20;;;1.10;;
16543;SDS011;8384;47.996;7.786;2023-11-19T09:01:37;1.27;;;0.70;;
16543;SDS011;8384;47.996;7.786;2023-11-19T09:04:02;1.00;;;0.70;;
16543;SDS011;8384;47.996;7.786;2023-11-19T09:06:27;0.70;;;0.70;;
16543;SDS011;8384;47.996;7.786;2023-11-19T09:08:53;1.03;;;0.70;;
16543;SDS011;8384;47.996;7.786;2023-11-19T09:11:18;1.60;;;0.60;;
16543;SDS011;8384;47.996;7.786;2023-11-19T09:13:43;1.13;;;0.70;;
16543;SDS011;8384;47.996;7.786;2023-11-19T09:16:11;1.40;;;0.80;;
16543;SDS011;8384;47.996;7.786;2023-11-19T09:18:37;1.33;;;0.90;;
16543;SDS011;8384;47.996;7.786;2023-11-19T09:21:02;1.70;;;0.80;;
16543;SDS011;8384;47.996;7.786;2023-11-19T09:23:28;2.90;;;0.75;;
16543;SDS011;8384;47.996;7.786;2023-11-19T09:25:55;1.55;;;0.80;;
16543;SDS011;8384;47.996;7.786;2023-11-19T09:28:21;1.10;;;0.90;;
16543;SDS011;8384;47.996;7.786;2023-11-19T09:30:46;1.10;;;0.70;;
16543;SDS011;8384;47.996;7.786;2023-11-19T09:33:11;1.90;;;0.80;;
16543;SDS011;8384;47.996;7.786;2023-11-19T09:35:37;1.43;;;0.80;;
16543;SDS011;8384;47.996;7.786;2023-11-19T09:38:02;1.97;;;0.80;;
16543;SDS011;8384;47.996;7.786;2023-11-19T09:40:27;0.90;;;0.80;;
16543;SDS011;8384;47.996;7.786;2023-11-19T09:42:53;1.23;;;0.75;;
16543;SDS011;8384;47.996;7.786;2023-11-19T09:45:21;1.23;;;0.80;;
16543;SDS011;8384;47.996;7.786;2023-11-19T09:47:46;2.10;;;0.95;;
16543;SDS011;8384;47.996;7.786;2023-11-19T09:50:14;1.42;;;0.90;;
16543;SDS011;8384;47.996;7.786;2023-11-19T09:52:42;1.23;;;0.80;;
16543;SDS011;8384;47.996;7.786;2023-11-19T09:55:07;1.67;;;0.82;;
16543;SDS011;8384;47.996;7.786;2023-11-19T09:57:33;2.13;;;0.90;;
16543;SDS011;8384;47.996;7.786;2023-11-19T10:00:02;1.23;;;0.73;;
16543;SDS011;8384;47.996;7.786;2023-11-19T10:02:30;1.77;;;0.90;;
16543;SDS011;8384;47.996;7.786;2023-11-19T10:04:58;1.63;;;0.75;;
16543;SDS011;8384;47.996;7.786;2023-11-19T10:07:24;2.03;;;0.80;;
16543;SDS011;8384;47.996;7.786;2023-11-19T10:09:50;1.97;;;0.73;;
16543;SDS011;8384;47.996;7.786;2023-11-19T10:12:15;1.30;;;0.80;;
16543;SDS011;8384;47.996;7.786;2023-11-19T10:14:41;2.22;;;0.68;;
16543;SDS011;8384;47.996;7.786;2023-11-19T10:17:08;1.52;;;0.90;;
16543;SDS011;8384;47.996;7.786;2023-11-19T10:19:34;1.07;;;0.60;;
16543;SDS011;8384;47.996;7.786;2023-11-19T10:22:06;1.97;;;0.60;;
16543;SDS011;8384;47.996;7.786;2023-11-19T10:24:32;1.03;;;0.67;;
16543;SDS011;8384;47.996;7.786;2023-11-19T10:27:02;0.82;;;0.60;;
16543;SDS011;8384;47.996;7.786;2023-11-19T10:29:35;2.22;;;0.60;;
16543;SDS011;8384;47.996;7.786;2023-11-19T10:32:01;1.63;;;0.60;;
16543;SDS011;8384;47.996;7.786;2023-11-19T10:34:27;1.63;;;0.60;;
16543;SDS011;8384;47.996;7.786;2023-11-19T10:36:53;0.70;;;0.60;;
16543;SDS011;8384;47.996;7.786;2023-11-19T10:39:18;1.55;;;0.55;;
16543;SDS011;8384;47.996;7.786;2023-11-19T10:41:45;1.40;;;0.67;;
16543;SDS011;8384;47.996;7.786;2023-11-19T10:44:11;0.80;;;0.57;;
16543;SDS011;8384;47.996;7.786;2023-11-19T10:46:37;0.80;;;0.50;;
16543;SDS011;8384;47.996;7.786;2023-11-19T10:49:07;0.60;;;0.50;;
16543;SDS011;8384;47.996;7.786;2023-11-19T10:51:32;2.03;;;0.50;;
16543;SDS011;8384;47.996;7.786;2023-11-19T10:54:05;0.70;;;0.70;;
16543;SDS011;8384;47.996;7.786;2023-11-19T10:56:31;0.60;;;0.60;;
16543;SDS011;8384;47.996;7.786;2023-11-19T10:58:57;0.50;;;0.50;;
16543;SDS011;8384;47.996;7.786;2023-11-19T11:01:33;0.85;;;0.60;;
16543;SDS011;8384;47.996;7.786;2023-11-19T11:04:03;1.20;;;0.60;;
16543;SDS011;8384;47.996;7.786;2023-11-19T11:06:31;1.52;;;0.52;;
16543;SDS011;8384;47.996;7.786;2023-11-19T11:08:59;0.60;;;0.50;;
16543;SDS011;8384;47.996;7.786;2023-11-19T11:11:25;2.10;;;0.70;;
16543;SDS011;8384;47.996;7.786;2023-11-19T11:13:52;0.90;;;0.50;;
16543;SDS011;8384;47.996;7.786;2023-11-19T11:16:19;0.75;;;0.55;;
16543;SDS011;8384;47.996;7.786;2023-11-19T11:18:45;0.80;;;0.68;;
16543;SDS011;8384;47.996;7.786;2023-11-19T11:21:15;0.95;;;0.60;;
16543;SDS011;8384;47.996;7.786;2023-11-19T11:26:39;0.95;;;0.57;;
16543;SDS011;8384;47.996;7.786;2023-11-19T11:29:37;0.88;;;0.57;;
16543;SDS011;8384;47.996;7.786;2023-11-19T11:37:49;1.85;;;0.68;;
16543;SDS011;8384;47.996;7.786;2023-11-19T11:40:21;1.38;;;0.73;;
16543;SDS011;8384;47.996;7.786;2023-11-19T11:42:48;1.90;;;0.90;;
16543;SDS011;8384;47.996;7.786;2023-11-19T11:45:16;1.73;;;0.87;;
16543;SDS011;8384;47.996;7.786;2023-11-19T11:50:08;1.80;;;0.80;;
16543;SDS011;8384;47.996;7.786;2023-11-19T11:52:41;1.60;;;0.73;;
16543;SDS011;8384;47.996;7.786;2023-11-19T11:55:35;1.80;;;0.85;;
16543;SDS011;8384;47.996;7.786;2023-11-19T11:58:02;2.58;;;0.90;;
16543;SDS011;8384;47.996;7.786;2023-11-19T12:00:31;1.97;;;0.80;;
16543;SDS011;8384;47.996;7.786;2023-11-19T12:03:01;2.20;;;0.80;;
16543;SDS011;8384;47.996;7.786;2023-11-19T12:05:29;1.35;;;0.80;;
16543;SDS011;8384;47.996;7.786;2023-11-19T12:07:55;2.17;;;0.90;;
16543;SDS011;8384;47.996;7.786;2023-11-19T12:10:30;1.13;;;0.70;;
16543;SDS011;8384;47.996;7.786;2023-11-19T12:13:07;1.30;;;0.90;;
16543;SDS011;8384;47.996;7.786;2023-11-19T12:15:33;1.37;;;0.73;;
16543;SDS011;8384;47.996;7.786;2023-11-19T12:17:58;1.25;;;0.80;;
16543;SDS011;8384;47.996;7.786;2023-11-19T12:20:25;1.50;;;0.90;;
16543;SDS011;8384;47.996;7.786;2023-11-19T12:22:51;2.33;;;1.10;;
16543;SDS011;8384;47.996;7.786;2023-11-19T12:25:17;1.87;;;0.90;;
16543;SDS011;8384;47.996;7.786;2023-11-19T12:27:45;0.95;;;0.82;;
16543;SDS011;8384;47.996;7.786;2023-11-19T12:30:11;2.00;;;1.00;;
16543;SDS011;8384;47.996;7.786;2023-11-19T12:32:37;1.38;;;0.85;;
16543;SDS011;8384;47.996;7.786;2023-11-19T12:35:11;1.90;;;1.00;;
16543;SDS011;8384;47.996;7.786;2023-11-19T12:37:47;1.85;;;0.88;;
16543;SDS011;8384;47.996;7.786;2023-11-19T12:40:17;2.22;;;0.90;;
16543;SDS011;8384;47.996;7.786;2023-11-19T12:42:45;1.52;;;0.90;;
16543;SDS011;8384;47.996;7.786;2023-11-19T12:45:11;1.42;;;0.95;;
16543;SDS011;8384;47.996;7.786;2023-11-19T12:47:37;2.17;;;1.05;;
16543;SDS011;8384;47.996;7.786;2023-11-19T12:50:03;1.98;;;1.00;;
16543;SDS011;8384;47.996;7.786;2023-11-19T12:52:29;2.65;;;0.98;;
16543;SDS011;8384;47.996;7.786;2023-11-19T12:54:55;1.70;;;1.00;;
16543;SDS011;8384;47.996;7.786;2023-11-19T12:57:35;1.92;;;0.90;;
16543;SDS011;8384;47.996;7.786;2023-11-19T13:00:00;1.30;;;1.02;;
16543;SDS011;8384;47.996;7.786;2023-11-19T13:02:44;2.07;;;1.10;;
16543;SDS011;8384;47.996;7.786;2023-11-19T13:08:04;1.35;;;1.00;;
16543;SDS011;8384;47.996;7.786;2023-11-19T13:10:31;1.15;;;1.00;;
16543;SDS011;8384;47.996;7.786;2023-11-19T13:13:07;1.70;;;1.08;;
16543;SDS011;8384;47.996;7.786;2023-11-19T13:15:33;1.50;;;0.95;;
16543;SDS011;8384;47.996;7.786;2023-11-19T13:18:00;2.38;;;1.15;;
16543;SDS011;8384;47.996;7.786;2023-11-19T13:20:26;1.73;;;1.05;;
16543;SDS011;8384;47.996;7.786;2023-11-19T13:22:58;1.10;;;0.90;;
16543;SDS011;8384;47.996;7.786;2023-11-19T13:25:24;2.83;;;1.00;;
16543;SDS011;8384;47.996;7.786;2023-11-19T13:27:50;1.60;;;1.05;;
16543;SDS011;8384;47.996;7.786;2023-11-19T13:30:16;2.37;;;0.90;;
16543;SDS011;8384;47.996;7.786;2023-11-19T13:32:41;1.30;;;1.00;;
16543;SDS011;8384;47.996;7.786;2023-11-19T13:35:08;1.95;;;1.02;;
16543;SDS011;8384;47.996;7.786;2023-11-19T13:37:34;2.27;;;0.97;;
16543;SDS011;8384;47.996;7.786;2023-11-19T13:39:59;1.95;;;0.90;;
16543;SDS011;8384;47.996;7.786;2023-11-19T13:42:25;1.47;;;1.00;;
16543;SDS011;8384;47.996;7.786;2023-11-19T13:44:50;2.80;;;1.03;;
16543;SDS011;8384;47.996;7.786;2023-11-19T13:47:15;2.10;;;1.10;;
16543;SDS011;8384;47.996;7.786;2023-11-19T13:49:41;1.90;;;1.00;;
16543;SDS011;8384;47.996;7.786;2023-11-19T13:52:06;1.40;;;1.08;;
16543;SDS011;8384;47.996;7.786;2023-11-19T13:54:31;3.00;;;1.10;;
16543;SDS011;8384;47.996;7.786;2023-11-19T13:56:57;1.40;;;0.90;;
16543;SDS011;8384;47.996;7.786;2023-11-19T13:59:23;1.80;;;1.00;;
16543;SDS011;8384;47.996;7.786;2023-11-19T14:01:48;2.27;;;1.10;;
16543;SDS011;8384;47.996;7.786;2023-11-19T14:04:14;1.83;;;0.90;;
16543;SDS011;8384;47.996;7.786;2023-11-19T14:06:39;1.93;;;1.00;;
16543;SDS011;8384;47.996;7.786;2023-11-19T14:09:06;2.30;;;1.00;;
16543;SDS011;8384;47.996;7.786;2023-11-19T14:11:32;3.57;;;1.10;;
16543;SDS011;8384;47.996;7.786;2023-11-19T14:13:57;2.50;;;1.17;;
16543;SDS011;8384;47.996;7.786;2023-11-19T14:16:26;1.73;;;0.93;;
16543;SDS011;8384;47.996;7.786;2023-11-19T14:18:51;3.17;;;1.15;;
16543;SDS011;8384;47.996;7.786;2023-11-19T14:21:16;2.30;;;1.02;;
16543;SDS011;8384;47.996;7.786;2023-11-19T14:23:42;2.63;;;1.10;;
16543;SDS011;8384;47.996;7.786;2023-11-19T14:26:07;2.60;;;0.90;;
16543;SDS011;8384;47.996;7.786;2023-11-19T14:28:33;3.42;;;1.17;;
16543;SDS011;8384;47.996;7.786;2023-11-19T14:30:58;1.77;;;1.10;;
16543;SDS011;8384;47.996;7.786;2023-11-19T14:33:23;2.43;;;1.10;;
16543;SDS011;8384;47.996;7.786;2023-11-19T14:35:49;1.80;;;1.10;;
16543;SDS011;8384;47.996;7.786;2023-11-19T14:38:14;1.77;;;0.80;;
16543;SDS011;8384;47.996;7.786;2023-11-19T14:40:39;2.00;;;1.03;;
16543;SDS011;8384;47.996;7.786;2023-11-19T14:43:05;3.15;;;1.20;;
16543;SDS011;8384;47.996;7.786;2023-11-19T14:45:30;2.67;;;0.93;;
16543;SDS011;8384;47.996;7.786;2023-11-19T14:47:55;1.58;;;1.10;;
16543;SDS011;8384;47.996;7.786;2023-11-19T14:50:21;1.40;;;1.20;;
16543;SDS011;8384;47.996;7.786;2023-11-19T14:52:46;1.73;;;0.93;;
16543;SDS011;8384;47.996;7.786;2023-11-19T14:55:11;2.30;;;1.13;;
16543;SDS011;8384;47.996;7.786;2023-11-19T14:57:37;2.23;;;1.17;;
16543;SDS011;8384;47.996;7.786;2023-11-19T15:00:04;2.37;;;1.13;;
16543;SDS011;8384;47.996;7.786;2023-11-19T15:02:37;3.70;;;1.20;;
16543;SDS011;8384;47.996;7.786;2023-11-19T15:05:03;1.92;;;1.30;;
16543;SDS011;8384;47.996;7.786;2023-11-19T15:07:28;2.30;;;1.30;;
16543;SDS011;8384;47.996;7.786;2023-11-19T15:09:54;2.70;;;1.40;;